Extreme weather reports worldwide

Highest temperatures

Station
 
Location
 
Name
 
Wind
Knots
Gust
Knots
Vis
SM
Temp/Dew
C
Baro
inHg
METAR
 
EED KEED Needles, US Needles Airport 5 10 41/14 29.80 KEED 080056Z AUTO 09005KT 10SM CLR 42/14 A2980 RMK AO2 SLP050 T04170144
HII KHII Lake Havasu City, US Lake Havasu City Airport 5 10 41/13 29.80 KHII 080135Z AUTO 17005KT 10SM CLR 41/13 A2980 RMK AO2
BLH KBLH Blythe, US Blythe Airport 13 10 40/17 29.79 KBLH 080052Z AUTO 19013KT 10SM CLR 40/17 A2979 RMK AO2 SLP079 T04000172 TSNO
IPL KIPL Imperial, US Imperial County Airport 10 10 40/18 29.75 KIPL 080053Z AUTO 11010KT 10SM CLR 40/19 A2975 RMK AO2 SLP075 T04000189
VGT KVGT Las Vegas, US North Las Vegas Airport 7 10 40/8 29.89 KVGT 080053Z 12007KT 10SM CLR 40/09 A2989 RMK AO2 SLP106 T04000089 PNO

Station
 
Location
 
Name
 
Wind
Knots
Gust
Knots
Vis
SM
Temp/Dew
C
Baro
inHg
METAR
 
NJK KNJK El Centro, US El Centro NAF Airport (Vraciu Field) 9 10 40/19 29.76 KNJK 080056Z AUTO 12009KT 10SM BKN110 41/19 A2976 RMK AO2 SLP094 T04060194 $
LSV KLSV Las Vegas, US Nellis Air Force Base 0 10 40/6 29.86 KLSV 080058Z 00000KT 10SM CLR 41/07 A2986 RMK AO2A SLP081 T04070069 $
IFP KIFP Bullhead City, US Laughlin Bullhead International Airport 6 10 40/13 29.78 KIFP 080135Z AUTO 22006KT 10SM CLR 40/13 A2978 RMK AO2
PSP KPSP Palm Springs, US Palm Springs International Airport 3 10 39/16 29.81 KPSP 080053Z VRB03KT 10SM CLR 39/17 A2981 RMK AO2 SLP090 T03940167
KNID China Lake, US China Lake Naws (Armitage Field) Airport 3 10 39/7 29.88 KNID 080056Z AUTO VRB03KT 10SM CLR 39/08 A2988 RMK AO2 SLP092 T03940078 $
K9L2 12 19 8 39/0 29.89 K9L2 080058Z AUTO 22012G19KT 8SM FEW140 39/01 A2989 RMK AO2 SLP094 T03910005 $
LGF KLGF Yuma Proving Ground(Yuma), US Laguna Army Airfield 12 39/17 29.80 KLGF 080058Z AUTO 26012KT M M CLR 39/17 A2980 RMK AO2 SLP087 T03900171 RVRNO PWINO TSNO $
LUF KLUF Glendale, US Luke Air Force Base 13 10 39/17 29.81 KLUF 080058Z AUTO 20013KT 10SM CLR 39/18 A2981 RMK AO2 SLP078 T03910178 $
KBVU 0 39/7 29.89 KBVU 080135Z AUTO 00000KT 39/07 A2989 RMK AO2 PWINO TSNO
KL08 0 10 39/15 29.79 KL08 080135Z AUTO 00000KT 10SM CLR 39/15 A2979 RMK AO2
MXL MMML Mexicali, MX General Rodolfo Sánchez Taboada International Airport 10 10 38/16 29.79 MMML 080049Z 10010KT 10SM SKC 38/16 A2979 RMK CU DSNT S SW
PHX KPHX Phoenix, US Phoenix Sky Harbor International Airport 11 10 38/15 29.82 KPHX 080051Z 27011KT 10SM FEW080 FEW110 SCT160 BKN250 39/15 A2982 RMK AO2 SLP074 CB DSNT N-NE T03890150
TRM KTRM Palm Springs, US Jacqueline Cochran Regional Airport 6 10 38/17 29.75 KTRM 080052Z AUTO 14006KT 10SM CLR 38/18 A2975 RMK AO2 SLP076 T03830178
DLS KDLS The Dalles, US Columbia Gorge Regional the Dalles Municipal Airport 6 10 38/0 29.88 KDLS 080053Z AUTO 02006KT 10SM CLR 39/M01 A2988 RMK AO2 SLP114 T03891006
CGZ KCGZ Casa Grande, US Casa Grande Municipal Airport 12 19 38/16 29.86 KCGZ 080056Z AUTO 27012G19KT CLR 38/16 A2986 RMK AO2 SLP093 T03830161 PWINO $
HSH KHND Las Vegas, US Henderson Executive Airport 0 10 38/10 29.94 KHND 080056Z 00000KT 10SM CLR 38/10 A2994 RMK AO2 SLP119 T03830100
LAS KLAS Las Vegas, US McCarran International Airport 3 10 38/8 29.90 KLAS 080056Z VRB03KT 10SM FEW100 FEW250 39/09 A2990 RMK AO2 SLP094 CB DSNT SE T03890089
SGU KSGU St George, US St George Municipal Airport 11 10 38/5 29.93 KSGU 080056Z AUTO 25011KT 10SM CLR 39/05 A2993 RMK AO2 SLP092 T03890050
YUM KNYL Yuma, US Yuma MCAS/Yuma International Airport 8 10 38/18 29.79 KNYL 080057Z AUTO 18008KT 10SM CLR 38/18 A2979 RMK AO2 SLP085 T03830183 PNO $
EDW KEDW Edwards, US Edwards Air Force Base 22 26 10 38/4 29.88 KEDW 080058Z AUTO 25022G26KT 10SM CLR 39/04 A2988 RMK AO2 PK WND 24028/36 SLP091 T03860041
KGXF 12 16 10 38/16 29.82 KGXF 080058Z AUTO 29012G16KT 10SM CLR 39/16 A2982 RMK AO2 LTG DSNT NE SLP083 T03880164
DXB OMDB Dubai, AE Dubai International Airport 6 6.21 38/20 29.38 OMDB 080100Z 07006KT 040V100 CAVOK 38/20 Q0995 NOSIG
KA39 9 10 38/16 29.90 KA39 080135Z AUTO 28009KT 10SM 38/16 A2990 RMK AO2
BXK KBXK Buckeye, US Buckeye Municipal Airport 6 10 38/18 29.84 KBXK 080135Z AUTO 23006KT 10SM 38/18 A2984 RMK A01
KCHD Chandler, US Chandler Municipal Airport 12 10 38/15 29.86 KCHD 080147Z 29012KT 10SM FEW080 SCT150 BKN250 38/15 A2986
GYR KGYR Goodyear, US Phoenix Goodyear Airport 10 10 38/18 29.84 KGYR 080147Z 24010KT 10SM FEW080 SCT150 BKN200 BKN250 38/18 A2984
DAG KDAG Daggett, US Barstow Daggett Airport 10 10 38/11 29.87 KDAG 080150Z AUTO 13010KT 10SM CLR 38/11 A2987 RMK AO2 SLP083 T03830111
PDS MMPG MX Piedras Negras International Airport 10 10 37/22 29.94 MMPG 080042Z 12010KT 10SM FEW030 37/22 A2994 RMK 8/500
KHS OOKB Khasab, OM Khasab Air Base 6 6.21 37/23 29.41 OOKB 080050Z AUTO 18006KT CAVOK ////// 37/23 Q0996 NOSIG
SBD KSBD San Bernardino, US San Bernardino International Airport 10 15 7 37/6 29.88 KSBD 080051Z 27010G15KT 7SM SCT120 37/06 A2988
FWH KNFW Fort Worth, US NAS Fort Worth JRB/Carswell Field 16 10 37/16 29.97 KNFW 080052Z 18016KT 10SM CLR 37/16 A2997 RMK AO2 WSHFT 0002 SLP133 T03720161 $
OIAI IR Shahid Asyaee Airport 2 3.73 37/15 29.44 OIAI 080052Z 15002KT 6000 NSC 37/15 Q0997
DRA KDRA Mercury, US Desert Rock Airport 4 10 37/7 29.98 KDRA 080053Z AUTO VRB04KT 10SM FEW110 38/07 A2998 RMK AO2 SLP094 T03780072
DVT KDVT Phoenix, US Phoenix Deer Valley Airport 10 16 10 37/16 29.85 KDVT 080053Z 25010G16KT 10SM CLR 37/17 A2985 RMK AO2 SLP080 T03720167
MFR KMFR Medford, US Rogue Valley International Medford Airport 11 10 37/8 29.84 KMFR 080053Z 28011KT 10SM CLR 38/09 A2984 RMK AO2 SLP092 T03780089
RDD KRDD Redding, US Redding Municipal Airport 9 10 37/2 29.86 KRDD 080053Z 16009KT 10SM CLR 38/03 A2986 RMK AO2 SLP104 T03780028
SCF KSDL Scottsdale, US Scottsdale Airport 7 10 37/16 29.87 KSDL 080053Z 27007KT 10SM CLR 38/16 A2987 RMK AO2 SLP083 T03780161
KSPB Scappoose, US Scappoose Industrial Airpark 7 10 37/8 29.86 KSPB 080053Z AUTO 35007KT 10SM CLR 37/09 A2986 RMK AO2 SLP112 T03720089
TTD KTTD Portland, US Portland Troutdale Airport 6 10 37/8 29.85 KTTD 080053Z 08006KT 10SM CLR 38/08 A2985 RMK AO2 SLP108 T03780083
KUAO Aurora, US Aurora State Airport 5 10 37/7 29.88 KUAO 080053Z 35005KT 10SM CLR 37/07 A2988 RMK AO2 SLP114 T03720072
MSC KFFZ Mesa, US Falcon Field 10 37/15 29.85 KFFZ 080054Z AUTO 10SM CLR 38/16 A2985 RMK AO2 SLP080 T03780156 TSNO $
KNXP Twentynine Palms, US Twentynine Palms (Self) Airport 8 10 37/11 29.96 KNXP 080056Z AUTO 23008KT 10SM CLR 37/11 A2996 RMK AO2 SLP105 T03720111
SLE KSLE Salem, US Salem Municipal Airport/McNary Field 8 10 37/5 29.86 KSLE 080056Z 36008KT 10SM CLR 37/05 A2986 RMK AO2 SLP109 T03720050
WJF KWJF Lancaster, US General WM J Fox Airfield 17 25 10 37/5 29.92 KWJF 080056Z 24017G25KT 10SM CLR 37/05 A2992 RMK AO2 PK WND 24026/0012 SLP110 T03720050
BYS KBYS Fort Irwin/Barstow, US Bicycle Lake Army Air Field 3 10 37/9 29.90 KBYS 080058Z AUTO 14003KT 10SM CLR 37/10 A2990 RMK AO2 SLP093 T03730098 $